Terminal Aerodrome Forecast
Issued by NWS

Home | Current Version | Previous Version | Text Only | Print | Product List | Glossary On
Versions: 1 2 3 4 5 6 7 8 9 10 11 12 13 14 15 16 17 18 19
000
FTUS45 KTFX 291610 AAA
TAFLWT
TAF AMD
KLWT 291610Z 2916/3012 VRB06KT P6SM SCT018 BKN050
      TEMPO 2916/2919 BKN018
     FM291900 10006KT P6SM SCT060
     FM300300 12006KT P6SM SCT180=

USA.gov is the U.S. government's official web portal to all federal, state and local government web resources and services.